createdAt,value
2018-04-29T00:00:38.883Z,15.23
2018-04-29T00:01:38.851Z,15.23
2018-04-29T00:02:38.838Z,15.22
2018-04-29T00:03:38.811Z,15.17
2018-04-29T00:04:38.792Z,15.14
2018-04-29T00:05:38.774Z,15.11
2018-04-29T00:06:38.751Z,15.01
2018-04-29T00:07:38.734Z,14.96
2018-04-29T00:08:38.715Z,14.93
2018-04-29T00:09:38.694Z,15.04
2018-04-29T00:10:38.671Z,15.12
2018-04-29T00:11:38.656Z,15.17
2018-04-29T00:12:38.628Z,15.17
2018-04-29T00:13:38.609Z,15.23
2018-04-29T00:14:38.590Z,15.15
2018-04-29T00:15:38.573Z,15.05
2018-04-29T00:16:38.552Z,15.05
2018-04-29T00:17:38.529Z,15.05
2018-04-29T00:18:38.515Z,15.03
2018-04-29T00:19:38.491Z,15.19
2018-04-29T00:20:38.517Z,15.22
2018-04-29T00:21:38.450Z,15.23
2018-04-29T00:22:38.470Z,15.20
2018-04-29T00:23:38.409Z,15.30
2018-04-29T00:24:38.386Z,15.40
2018-04-29T00:25:38.374Z,15.32
2018-04-29T00:26:38.347Z,15.23
2018-04-29T00:27:38.338Z,15.15
2018-04-29T00:28:38.304Z,15.12
2018-04-29T00:29:38.289Z,15.19
2018-04-29T00:30:38.275Z,15.08
2018-04-29T00:31:38.250Z,15.10
2018-04-29T00:32:38.224Z,15.10
2018-04-29T00:33:38.204Z,15.04
2018-04-29T00:34:38.188Z,15.01
2018-04-29T00:35:38.174Z,14.97
2018-04-29T00:36:38.145Z,14.89
2018-04-29T00:37:38.128Z,15.10
2018-04-29T00:38:38.152Z,15.14
2018-04-29T00:39:38.081Z,15.07
2018-04-29T00:40:38.073Z,14.93
2018-04-29T00:41:38.047Z,14.93
2018-04-29T00:42:38.023Z,14.95
2018-04-29T00:43:37.999Z,14.93
2018-04-29T00:44:37.983Z,14.92
2018-04-29T00:45:37.968Z,14.96
2018-04-29T00:46:37.943Z,14.95
2018-04-29T00:47:37.921Z,14.89
2018-04-29T00:48:37.901Z,14.95
2018-04-29T00:49:37.886Z,14.85
2018-04-29T00:50:37.860Z,14.87
2018-04-29T00:51:37.843Z,14.95
2018-04-29T00:52:37.821Z,14.90
2018-04-29T00:53:37.798Z,14.93
2018-04-29T00:54:37.785Z,14.89
2018-04-29T00:55:37.767Z,14.90
2018-04-29T00:56:37.743Z,14.86
2018-04-29T00:57:37.734Z,14.97
2018-04-29T00:58:37.699Z,14.79
2018-04-29T00:59:37.685Z,14.87
2018-04-29T01:00:37.663Z,14.74
2018-04-29T01:01:37.635Z,14.77
2018-04-29T01:02:37.617Z,14.85
2018-04-29T01:03:37.604Z,14.73
2018-04-29T01:04:37.578Z,14.70
2018-04-29T01:05:37.594Z,14.69
2018-04-29T01:06:37.591Z,14.67
2018-04-29T01:07:37.520Z,14.63
2018-04-29T01:08:37.492Z,14.59
2018-04-29T01:09:37.476Z,14.55
2018-04-29T01:10:37.459Z,14.70
2018-04-29T01:11:37.444Z,14.66
2018-04-29T01:12:37.416Z,14.70
2018-04-29T01:13:37.396Z,14.64
2018-04-29T01:14:37.373Z,14.70
2018-04-29T01:15:37.353Z,14.71
2018-04-29T01:16:37.330Z,14.64
2018-04-29T01:17:37.312Z,14.77
2018-04-29T01:18:37.296Z,14.77
2018-04-29T01:19:37.272Z,14.78
2018-04-29T01:20:37.253Z,14.71
2018-04-29T01:21:37.233Z,14.69
2018-04-29T01:22:37.222Z,14.70
2018-04-29T01:23:37.189Z,14.71
2018-04-29T01:24:37.171Z,14.74
2018-04-29T01:25:37.159Z,14.71
2018-04-29T01:26:37.160Z,14.77
2018-04-29T01:27:37.164Z,14.77
2018-04-29T01:28:37.114Z,14.82
2018-04-29T01:29:37.103Z,14.93
2018-04-29T01:30:37.047Z,14.82
2018-04-29T01:31:37.030Z,14.96
2018-04-29T01:32:37.004Z,14.89
2018-04-29T01:33:36.998Z,14.92
2018-04-29T01:34:36.964Z,14.83
2018-04-29T01:35:36.941Z,14.74
2018-04-29T01:36:36.920Z,14.74
2018-04-29T01:37:36.899Z,14.78
2018-04-29T01:38:36.879Z,14.71
2018-04-29T01:39:36.862Z,14.78
2018-04-29T01:40:36.844Z,14.74
2018-04-29T01:41:36.820Z,14.73
2018-04-29T01:42:36.798Z,14.74
2018-04-29T01:43:36.779Z,14.77
2018-04-29T01:44:36.761Z,14.82
2018-04-29T01:45:36.737Z,14.74
2018-04-29T01:46:36.742Z,14.74
2018-04-29T01:47:36.709Z,14.79
2018-04-29T01:48:36.685Z,14.83
2018-04-29T01:49:36.694Z,14.73
2018-04-29T01:50:36.634Z,14.93
2018-04-29T01:51:36.662Z,14.85
2018-04-29T01:52:36.599Z,14.74
2018-04-29T01:53:36.575Z,14.78
2018-04-29T01:54:36.557Z,14.73
2018-04-29T01:55:36.539Z,14.74
2018-04-29T01:56:36.513Z,14.67
2018-04-29T01:57:36.495Z,14.56
2018-04-29T01:58:36.478Z,14.63
2018-04-29T01:59:36.466Z,14.66
2018-04-29T02:00:36.433Z,14.55
2018-04-29T02:01:36.414Z,14.59
2018-04-29T02:02:36.391Z,14.59
2018-04-29T02:03:36.370Z,14.55
2018-04-29T02:04:36.356Z,14.53
2018-04-29T02:05:36.345Z,14.55
2018-04-29T02:06:36.310Z,14.49
2018-04-29T02:07:36.288Z,14.41
2018-04-29T02:08:36.269Z,14.45
2018-04-29T02:09:36.252Z,14.41
2018-04-29T02:10:36.231Z,14.48
2018-04-29T02:11:36.208Z,14.28
2018-04-29T02:12:36.185Z,14.33
2018-04-29T02:13:36.170Z,14.30
2018-04-29T02:14:36.145Z,14.31
2018-04-29T02:15:36.124Z,14.21
2018-04-29T02:16:36.106Z,14.30
2018-04-29T02:17:36.084Z,14.21
2018-04-29T02:18:36.063Z,14.27
2018-04-29T02:19:36.043Z,14.19
2018-04-29T02:20:36.031Z,14.33
2018-04-29T02:21:36.015Z,14.28
2018-04-29T02:22:35.992Z,14.22
2018-04-29T02:23:35.963Z,14.33
2018-04-29T02:24:35.947Z,14.30
2018-04-29T02:25:35.927Z,14.33
2018-04-29T02:26:35.916Z,14.21
2018-04-29T02:27:35.879Z,14.30
2018-04-29T02:28:35.860Z,14.38
2018-04-29T02:29:35.837Z,14.36
2018-04-29T02:30:35.821Z,14.31
2018-04-29T02:31:35.795Z,14.31
2018-04-29T02:32:35.778Z,14.33
2018-04-29T02:33:35.757Z,14.16
2018-04-29T02:34:35.736Z,14.15
2018-04-29T02:35:35.719Z,14.01
2018-04-29T02:36:35.699Z,14.13
2018-04-29T02:39:12.246Z,14.15
2018-04-29T02:40:12.147Z,14.15
2018-04-29T02:42:08.582Z,14.16
2018-04-29T02:43:08.480Z,14.11
2018-04-29T02:45:04.466Z,14.18
2018-04-29T02:46:04.385Z,14.18
2018-04-29T02:48:01.358Z,14.30
2018-04-29T02:49:01.268Z,14.27
2018-04-29T02:50:57.384Z,14.22
2018-04-29T02:51:57.290Z,14.31
2018-04-29T02:53:50.769Z,14.28
2018-04-29T02:54:50.691Z,14.18
2018-04-29T02:56:46.710Z,14.27
2018-04-29T02:57:46.627Z,14.22
2018-04-29T02:59:40.090Z,14.23
2018-04-29T03:00:40.049Z,14.26
2018-04-29T03:02:35.993Z,14.36
2018-04-29T03:03:35.914Z,14.33
2018-04-29T03:05:31.926Z,14.23
2018-04-29T03:06:31.884Z,14.16
2018-04-29T03:08:27.956Z,14.16
2018-04-29T03:09:27.754Z,14.03
2018-04-29T03:10:27.735Z,13.98
2018-04-29T03:11:27.713Z,13.93
2018-04-29T03:12:27.691Z,13.91
2018-04-29T03:13:27.680Z,13.98
2018-04-29T03:14:27.666Z,13.97
2018-04-29T03:15:27.643Z,13.98
2018-04-29T03:16:27.612Z,13.96
2018-04-29T03:17:27.590Z,14.04
2018-04-29T03:18:27.565Z,14.13
2018-04-29T03:19:27.546Z,14.08
2018-04-29T03:20:27.526Z,14.12
2018-04-29T03:21:27.506Z,14.08
2018-04-29T03:22:27.509Z,14.12
2018-04-29T03:23:27.466Z,14.13
2018-04-29T03:24:27.445Z,14.16
2018-04-29T03:25:27.432Z,14.22
2018-04-29T03:26:27.405Z,14.33
2018-04-29T03:27:27.380Z,14.21
2018-04-29T03:28:27.362Z,14.30
2018-04-29T03:29:27.341Z,14.31
2018-04-29T03:30:27.329Z,14.30
2018-04-29T03:31:27.298Z,14.21
2018-04-29T03:32:27.282Z,14.15
2018-04-29T03:33:27.281Z,14.16
2018-04-29T03:34:27.278Z,14.05
2018-04-29T03:35:27.262Z,14.08
2018-04-29T03:36:27.211Z,14.01
2018-04-29T03:37:27.224Z,13.97
2018-04-29T03:38:27.154Z,13.96
2018-04-29T03:39:27.141Z,13.88
2018-04-29T03:40:27.112Z,13.88
2018-04-29T03:41:27.094Z,13.72
2018-04-29T03:42:27.066Z,13.58
2018-04-29T03:43:27.050Z,13.47
2018-04-29T03:44:27.027Z,13.43
2018-04-29T03:45:27.024Z,13.40
2018-04-29T03:46:26.986Z,13.47
2018-04-29T03:47:26.966Z,13.42
2018-04-29T03:48:26.977Z,13.51
2018-04-29T03:49:26.926Z,13.47
2018-04-29T03:50:26.901Z,13.54
2018-04-29T03:51:26.881Z,13.65
2018-04-29T03:52:26.860Z,13.63
2018-04-29T03:53:26.838Z,13.57
2018-04-29T03:54:26.823Z,13.73
2018-04-29T03:55:26.795Z,13.72
2018-04-29T03:56:26.774Z,13.79
2018-04-29T03:57:26.751Z,13.88
2018-04-29T03:58:26.730Z,13.88
2018-04-29T03:59:26.710Z,13.90
2018-04-29T04:00:26.690Z,13.94
2018-04-29T04:01:26.669Z,13.98
2018-04-29T04:02:26.650Z,13.98
2018-04-29T04:03:26.630Z,14.11
2018-04-29T04:04:26.605Z,13.98
2018-04-29T04:05:26.583Z,13.91
2018-04-29T04:06:26.562Z,13.83
2018-04-29T04:07:26.545Z,13.83
2018-04-29T04:08:26.557Z,13.78
2018-04-29T04:09:26.501Z,13.71
2018-04-29T04:10:26.479Z,13.68
2018-04-29T04:11:26.456Z,13.71
2018-04-29T04:12:26.441Z,13.76
2018-04-29T04:13:26.417Z,13.67
2018-04-29T04:14:26.400Z,13.61
2018-04-29T04:15:26.372Z,13.51
2018-04-29T04:16:26.356Z,13.39
2018-04-29T04:17:26.338Z,13.24
2018-04-29T04:18:26.315Z,13.08
2018-04-29T04:19:26.286Z,13.08
2018-04-29T04:20:26.267Z,13.09
2018-04-29T04:21:26.248Z,13.02
2018-04-29T04:22:26.225Z,12.88
2018-04-29T04:23:26.202Z,12.88
2018-04-29T04:24:26.187Z,12.84
2018-04-29T04:25:26.163Z,12.95
2018-04-29T04:26:26.137Z,12.98
2018-04-29T04:27:26.124Z,13.06
2018-04-29T04:28:26.098Z,13.08
2018-04-29T04:29:26.116Z,13.29
2018-04-29T04:30:26.091Z,13.30
2018-04-29T04:31:26.098Z,13.30
2018-04-29T04:32:26.009Z,13.32
2018-04-29T04:33:25.993Z,13.40
2018-04-29T04:34:25.965Z,13.38
2018-04-29T04:35:25.950Z,13.39
2018-04-29T04:36:25.925Z,13.54
2018-04-29T04:37:25.904Z,13.45
2018-04-29T04:40:00.595Z,13.46
2018-04-29T04:41:00.455Z,13.39
2018-04-29T04:42:56.494Z,13.23
2018-04-29T04:43:56.405Z,13.14
2018-04-29T04:45:53.416Z,13.20
2018-04-29T04:46:53.321Z,13.23
2018-04-29T04:48:49.326Z,13.46
2018-04-29T04:49:49.191Z,13.43
2018-04-29T04:51:42.651Z,13.54
2018-04-29T04:52:42.551Z,13.65
2018-04-29T04:54:38.571Z,13.72
2018-04-29T04:55:38.494Z,13.71
2018-04-29T04:57:34.436Z,13.83
2018-04-29T04:58:34.366Z,13.76
2018-04-29T05:00:30.327Z,13.80
2018-04-29T05:01:30.252Z,13.88
2018-04-29T05:03:26.351Z,13.82
2018-04-29T05:04:26.275Z,13.68
2018-04-29T05:06:23.280Z,13.72
2018-04-29T05:07:23.197Z,13.65
2018-04-29T05:09:16.656Z,13.51
2018-04-29T05:10:16.589Z,13.51
2018-04-29T05:12:12.546Z,13.40
2018-04-29T05:13:12.698Z,13.42
2018-04-29T05:15:05.897Z,13.36
2018-04-29T05:16:05.821Z,13.30
2018-04-29T05:18:01.845Z,13.36
2018-04-29T05:19:01.756Z,13.20
2018-04-29T05:20:58.594Z,13.40
2018-04-29T05:21:58.494Z,13.45
2018-04-29T05:23:55.458Z,13.46
2018-04-29T05:24:55.302Z,13.51
2018-04-29T05:26:51.407Z,13.67
2018-04-29T05:27:51.258Z,13.68
2018-04-29T05:29:44.712Z,13.83
2018-04-29T05:30:44.598Z,13.86
2018-04-29T05:32:40.588Z,13.90
2018-04-29T05:33:40.475Z,13.97
2018-04-29T05:35:36.486Z,13.97
2018-04-29T05:36:36.401Z,13.96
2018-04-29T05:38:32.410Z,13.97
2018-04-29T05:39:32.321Z,14.04
2018-04-29T05:41:28.385Z,13.96
2018-04-29T05:42:28.289Z,13.97
2018-04-29T05:44:22.034Z,14.01
2018-04-29T05:45:21.803Z,13.98
2018-04-29T05:47:16.347Z,14.08
2018-04-29T05:48:16.272Z,14.15
2018-04-29T05:50:12.272Z,14.01
2018-04-29T05:51:12.157Z,13.98
2018-04-29T05:53:09.139Z,13.94
2018-04-29T05:54:09.040Z,14.09
2018-04-29T05:56:02.676Z,14.12
2018-04-29T05:57:02.608Z,14.11
2018-04-29T05:58:59.583Z,14.09
2018-04-29T05:59:59.472Z,14.22
2018-04-29T06:01:55.494Z,14.33
2018-04-29T06:02:55.419Z,14.19
2018-04-29T06:04:52.528Z,14.30
2018-04-29T06:05:52.320Z,14.30
2018-04-29T06:07:48.409Z,14.33
2018-04-29T06:08:48.336Z,14.28
2018-04-29T06:10:44.369Z,14.40
2018-04-29T06:11:44.322Z,14.44
2018-04-29T06:13:40.338Z,14.45
2018-04-29T06:14:40.223Z,14.52
2018-04-29T06:16:36.231Z,14.53
2018-04-29T06:17:36.153Z,14.63
2018-04-29T06:19:33.142Z,14.58
2018-04-29T06:20:33.114Z,14.73
2018-04-29T06:22:30.029Z,14.64
2018-04-29T06:23:29.922Z,14.64
2018-04-29T06:25:24.403Z,14.69
2018-04-29T06:26:24.305Z,14.69
2018-04-29T06:28:20.365Z,14.70
2018-04-29T06:29:20.243Z,14.77
2018-04-29T06:30:20.226Z,14.77
2018-04-29T06:31:20.211Z,14.82
2018-04-29T06:32:20.192Z,14.82
2018-04-29T06:33:20.165Z,14.87
2018-04-29T06:34:20.142Z,14.73
2018-04-29T06:35:20.119Z,14.86
2018-04-29T06:36:20.102Z,14.85
2018-04-29T06:37:20.082Z,14.92
2018-04-29T06:38:20.061Z,14.83
2018-04-29T06:39:20.035Z,14.93
2018-04-29T06:40:20.020Z,14.92
2018-04-29T06:41:20.007Z,14.92
2018-04-29T06:42:19.974Z,14.87
2018-04-29T06:43:19.957Z,14.86
2018-04-29T06:44:19.940Z,14.82
2018-04-29T06:45:19.913Z,14.92
2018-04-29T06:46:19.897Z,14.93
2018-04-29T06:47:19.871Z,15.01
2018-04-29T06:48:19.850Z,14.93
2018-04-29T06:49:19.843Z,14.79
2018-04-29T06:50:19.811Z,14.95
2018-04-29T06:51:19.792Z,14.96
2018-04-29T06:52:19.772Z,14.96
2018-04-29T06:53:19.751Z,15.04
2018-04-29T06:54:19.729Z,15.04
2018-04-29T06:55:19.705Z,14.97
2018-04-29T06:56:19.692Z,15.08
2018-04-29T06:57:19.667Z,15.14
2018-04-29T06:58:19.644Z,15.15
2018-04-29T06:59:19.627Z,15.25
2018-04-29T07:00:19.648Z,15.23
2018-04-29T07:01:19.591Z,15.23
2018-04-29T07:02:19.584Z,15.35
2018-04-29T07:03:19.547Z,15.36
2018-04-29T07:04:19.582Z,15.35
2018-04-29T07:05:19.503Z,15.50
2018-04-29T07:06:19.522Z,15.45
2018-04-29T07:07:19.483Z,15.45
2018-04-29T07:08:19.497Z,15.51
2018-04-29T07:09:19.513Z,15.43
2018-04-29T07:10:19.430Z,15.51
2018-04-29T07:11:19.426Z,15.54
2018-04-29T07:12:19.412Z,15.52
2018-04-29T07:13:19.341Z,15.56
2018-04-29T07:14:19.319Z,15.59
2018-04-29T07:15:19.314Z,15.51
2018-04-29T07:16:19.283Z,15.63
2018-04-29T07:17:19.260Z,15.56
2018-04-29T07:18:19.236Z,15.63
2018-04-29T07:19:19.221Z,15.60
2018-04-29T07:20:19.198Z,15.62
2018-04-29T07:21:19.179Z,15.62
2018-04-29T07:22:19.156Z,15.68
2018-04-29T07:23:19.133Z,15.69
2018-04-29T07:24:19.120Z,15.65
2018-04-29T07:25:19.103Z,15.80
2018-04-29T07:26:19.081Z,15.76
2018-04-29T07:27:19.056Z,15.77
2018-04-29T07:28:19.037Z,15.78
2018-04-29T07:29:19.015Z,15.83
2018-04-29T07:30:19.003Z,15.83
2018-04-29T07:31:18.979Z,15.87
2018-04-29T07:32:18.955Z,15.91
2018-04-29T07:33:18.932Z,15.91
2018-04-29T07:34:18.913Z,15.99
2018-04-29T07:35:18.892Z,15.93
2018-04-29T07:36:18.873Z,15.91
2018-04-29T07:37:18.861Z,16.02
2018-04-29T07:38:18.833Z,15.90
2018-04-29T07:39:18.812Z,15.91
2018-04-29T07:40:18.795Z,15.98
2018-04-29T07:41:18.776Z,15.99
2018-04-29T07:42:18.749Z,15.95
2018-04-29T07:43:18.732Z,15.93
2018-04-29T07:44:18.715Z,15.98
2018-04-29T07:45:18.698Z,15.96
2018-04-29T07:46:18.673Z,16.05
2018-04-29T07:47:18.654Z,16.09
2018-04-29T07:48:18.634Z,16.13
2018-04-29T07:49:18.628Z,16.17
2018-04-29T07:50:18.589Z,16.18
2018-04-29T07:51:18.570Z,16.25
2018-04-29T07:52:18.564Z,16.36
2018-04-29T07:53:18.582Z,16.43
2018-04-29T07:54:18.509Z,16.43
2018-04-29T07:55:18.490Z,16.44
2018-04-29T07:56:18.476Z,16.54
2018-04-29T07:57:18.449Z,16.59
2018-04-29T07:58:21.237Z,16.52
2018-04-29T07:59:18.410Z,16.51
2018-04-29T08:00:18.387Z,16.54
2018-04-29T08:01:18.372Z,16.62
2018-04-29T08:02:18.347Z,16.69
2018-04-29T08:03:18.336Z,16.70
2018-04-29T08:04:18.307Z,16.65
2018-04-29T08:05:18.288Z,16.67
2018-04-29T08:06:18.273Z,16.88
2018-04-29T08:07:18.250Z,16.94
2018-04-29T08:08:18.229Z,16.97
2018-04-29T08:09:18.210Z,16.95
2018-04-29T08:10:18.191Z,17.02
2018-04-29T08:11:18.168Z,17.06
2018-04-29T08:12:18.171Z,17.12
2018-04-29T08:13:18.130Z,17.19
2018-04-29T08:14:18.105Z,17.22
2018-04-29T08:15:18.090Z,17.30
2018-04-29T08:16:18.081Z,17.34
2018-04-29T08:17:18.050Z,17.32
2018-04-29T08:18:18.031Z,17.35
2018-04-29T08:19:18.010Z,17.32
2018-04-29T08:20:17.991Z,17.38
2018-04-29T08:21:17.975Z,17.30
2018-04-29T08:22:17.955Z,17.37
2018-04-29T08:23:17.932Z,17.32
2018-04-29T08:24:17.939Z,17.43
2018-04-29T08:25:17.892Z,17.41
2018-04-29T08:26:17.879Z,17.50
2018-04-29T08:27:17.855Z,17.54
2018-04-29T08:28:17.831Z,17.59
2018-04-29T08:29:17.819Z,17.62
2018-04-29T08:30:17.793Z,17.66
2018-04-29T08:31:17.784Z,17.66
2018-04-29T08:32:17.753Z,17.68
2018-04-29T08:33:17.737Z,17.78
2018-04-29T08:34:17.717Z,17.88
2018-04-29T08:35:17.697Z,17.84
2018-04-29T08:36:17.703Z,17.99
2018-04-29T08:37:17.695Z,18.05
2018-04-29T08:38:17.705Z,18.05
2018-04-29T08:39:17.632Z,18.12
2018-04-29T08:40:17.598Z,18.20
2018-04-29T08:41:17.590Z,18.23
2018-04-29T08:42:17.571Z,18.24
2018-04-29T08:43:17.589Z,18.33
2018-04-29T08:44:17.579Z,18.30
2018-04-29T08:45:17.573Z,18.48
2018-04-29T08:46:17.542Z,18.48
2018-04-29T08:47:17.491Z,18.54
2018-04-29T08:48:17.447Z,18.58
2018-04-29T08:49:17.425Z,18.52
2018-04-29T08:50:17.423Z,18.57
2018-04-29T08:51:17.390Z,18.66
2018-04-29T08:52:17.368Z,18.64
2018-04-29T08:53:17.353Z,18.71
2018-04-29T08:54:17.332Z,18.83
2018-04-29T08:55:17.319Z,18.85
2018-04-29T08:56:17.299Z,18.94
2018-04-29T08:57:17.270Z,19.01
2018-04-29T08:58:17.254Z,19.13
2018-04-29T08:59:17.237Z,19.17
2018-04-29T09:00:17.222Z,19.26
2018-04-29T09:01:17.206Z,19.34
2018-04-29T09:02:17.182Z,19.30
2018-04-29T09:03:17.175Z,19.41
2018-04-29T09:04:17.148Z,19.47
2018-04-29T09:05:17.123Z,19.53
2018-04-29T09:06:17.105Z,19.42
2018-04-29T09:07:17.091Z,19.41
2018-04-29T09:08:17.074Z,19.50
2018-04-29T09:09:17.049Z,19.56
2018-04-29T09:10:17.125Z,19.57
2018-04-29T09:11:17.013Z,19.54
2018-04-29T09:12:16.992Z,19.70
2018-04-29T09:13:16.985Z,19.77
2018-04-29T09:14:16.962Z,19.77
2018-04-29T09:15:16.939Z,19.90
2018-04-29T09:16:16.928Z,19.99
2018-04-29T09:17:16.913Z,20.14
2018-04-29T09:18:16.887Z,20.27
2018-04-29T09:19:16.871Z,20.36
2018-04-29T09:20:16.851Z,20.50
2018-04-29T09:21:16.829Z,20.58
2018-04-29T09:22:16.813Z,20.70
2018-04-29T09:23:16.799Z,20.79
2018-04-29T09:24:16.780Z,20.85
2018-04-29T09:25:16.775Z,20.93
2018-04-29T09:26:16.740Z,21.25
2018-04-29T09:27:16.727Z,21.41
2018-04-29T09:28:16.709Z,21.73
2018-04-29T09:29:31.261Z,21.81
2018-04-29T09:30:16.676Z,21.94
2018-04-29T09:31:16.659Z,22.09
2018-04-29T09:32:16.644Z,22.18
2018-04-29T09:33:16.628Z,22.33
2018-04-29T09:34:16.598Z,22.48
2018-04-29T09:35:16.586Z,22.44
2018-04-29T09:36:16.572Z,22.51
2018-04-29T09:37:17.312Z,22.61
2018-04-29T09:38:16.537Z,22.70
2018-04-29T09:39:16.527Z,22.68
2018-04-29T09:40:16.501Z,22.80
2018-04-29T09:41:16.479Z,22.83
2018-04-29T09:42:16.460Z,22.92
2018-04-29T09:43:16.527Z,22.91
2018-04-29T09:44:16.430Z,22.99
2018-04-29T09:45:16.410Z,23.14
2018-04-29T09:46:16.396Z,23.11
2018-04-29T09:47:16.381Z,23.21
2018-04-29T09:48:16.374Z,23.33
2018-04-29T09:49:17.099Z,23.41
2018-04-29T09:50:16.329Z,23.42
2018-04-29T09:51:16.308Z,23.52
2018-04-29T09:52:16.293Z,23.61
2018-04-29T09:53:16.279Z,23.70
2018-04-29T09:54:16.261Z,23.88
2018-04-29T09:55:16.249Z,23.84
2018-04-29T09:56:16.327Z,23.98
2018-04-29T09:57:16.214Z,24.03
2018-04-29T09:58:16.200Z,24.04
2018-04-29T09:59:16.182Z,24.07
2018-04-29T10:00:16.171Z,24.08
2018-04-29T10:01:16.221Z,24.15
2018-04-29T10:02:16.133Z,24.08
2018-04-29T10:03:16.117Z,24.15
2018-04-29T10:04:16.099Z,24.15
2018-04-29T10:05:16.088Z,24.25
2018-04-29T10:06:16.075Z,24.38
2018-04-29T10:07:16.068Z,24.41
2018-04-29T10:08:16.035Z,24.41
2018-04-29T10:09:16.023Z,24.48
2018-04-29T10:10:16.364Z,24.60
2018-04-29T10:11:15.996Z,24.55
2018-04-29T10:12:15.983Z,24.58
2018-04-29T10:13:15.965Z,24.70
2018-04-29T10:14:15.958Z,24.62
2018-04-29T10:15:15.944Z,24.68
2018-04-29T10:16:15.915Z,24.62
2018-04-29T10:17:15.931Z,24.56
2018-04-29T10:18:15.942Z,24.70
2018-04-29T10:19:15.875Z,24.70
2018-04-29T10:20:15.857Z,24.75
2018-04-29T10:21:15.850Z,24.68
2018-04-29T10:22:15.827Z,24.76
2018-04-29T10:23:15.820Z,24.66
2018-04-29T10:24:15.807Z,24.68
2018-04-29T10:25:15.790Z,24.60
2018-04-29T10:26:15.782Z,24.66
2018-04-29T10:27:15.759Z,24.63
2018-04-29T10:28:15.741Z,24.70
2018-04-29T10:29:15.730Z,24.71
2018-04-29T10:30:15.718Z,24.78
2018-04-29T10:31:15.720Z,24.85
2018-04-29T10:32:15.684Z,24.86
2018-04-29T10:33:15.691Z,24.93
2018-04-29T10:34:15.685Z,24.90
2018-04-29T10:35:15.682Z,24.99
2018-04-29T10:36:15.688Z,25.00
2018-04-29T10:37:15.674Z,24.94
2018-04-29T10:38:15.638Z,24.94
2018-04-29T10:39:15.602Z,25.00
2018-04-29T10:40:15.631Z,25.15
2018-04-29T10:41:15.554Z,25.26
2018-04-29T10:42:15.554Z,25.18
2018-04-29T10:43:15.527Z,25.27
2018-04-29T10:44:15.514Z,25.31
2018-04-29T10:45:15.509Z,25.19
2018-04-29T10:46:15.481Z,25.26
2018-04-29T10:47:15.469Z,25.27
2018-04-29T10:48:15.463Z,25.23
2018-04-29T10:49:15.445Z,25.12
2018-04-29T10:50:15.435Z,25.09
2018-04-29T10:51:15.414Z,25.06
2018-04-29T10:52:15.395Z,25.09
2018-04-29T10:53:15.383Z,25.03
2018-04-29T10:54:15.367Z,25.08
2018-04-29T10:55:15.355Z,25.18
2018-04-29T10:56:15.346Z,25.19
2018-04-29T10:57:15.326Z,25.19
2018-04-29T10:58:15.312Z,25.26
2018-04-29T10:59:15.296Z,25.26
2018-04-29T11:00:15.287Z,25.18
2018-04-29T11:01:15.272Z,25.30
2018-04-29T11:02:15.255Z,25.27
2018-04-29T11:03:15.245Z,25.27
2018-04-29T11:04:15.234Z,25.34
2018-04-29T11:05:15.220Z,25.40
2018-04-29T11:06:15.210Z,25.43
2018-04-29T11:07:15.190Z,25.43
2018-04-29T11:08:15.180Z,25.40
2018-04-29T11:09:15.160Z,25.48
2018-04-29T11:10:15.148Z,25.48
2018-04-29T11:11:15.136Z,25.61
2018-04-29T11:12:15.124Z,25.56
2018-04-29T11:13:15.123Z,25.63
2018-04-29T11:14:15.099Z,25.67
2018-04-29T11:15:15.095Z,25.59
2018-04-29T11:16:15.084Z,25.67
2018-04-29T11:17:15.058Z,25.73
2018-04-29T11:18:15.100Z,25.67
2018-04-29T11:19:15.035Z,25.77
2018-04-29T11:20:15.085Z,25.77
2018-04-29T11:21:15.013Z,25.75
2018-04-29T11:22:15.013Z,25.67
2018-04-29T11:23:14.983Z,25.74
2018-04-29T11:24:14.969Z,25.67
2018-04-29T11:25:14.957Z,25.71
2018-04-29T11:26:14.957Z,25.82
2018-04-29T11:27:14.979Z,25.86
2018-04-29T11:28:14.921Z,25.86
2018-04-29T11:29:14.906Z,25.95
2018-04-29T11:30:29.803Z,25.83
2018-04-29T11:31:14.893Z,25.92
2018-04-29T11:32:14.914Z,25.96
2018-04-29T11:33:14.860Z,26.00
2018-04-29T11:34:14.851Z,26.00
2018-04-29T11:35:14.835Z,26.01
2018-04-29T11:36:14.823Z,26.07
2018-04-29T11:37:14.823Z,26.08
2018-04-29T11:38:14.797Z,26.12
2018-04-29T11:39:14.790Z,26.08
2018-04-29T11:40:14.852Z,26.01
2018-04-29T11:41:14.763Z,25.88
2018-04-29T11:42:14.759Z,25.98
2018-04-29T11:43:14.737Z,25.96
2018-04-29T11:44:14.728Z,26.04
2018-04-29T11:45:14.719Z,26.07
2018-04-29T11:46:14.700Z,26.05
2018-04-29T11:47:14.701Z,26.15
2018-04-29T11:48:14.703Z,26.24
2018-04-29T11:49:14.667Z,26.24
2018-04-29T11:50:14.650Z,26.28
2018-04-29T11:51:14.638Z,26.30
2018-04-29T11:52:14.627Z,26.30
2018-04-29T11:53:14.620Z,26.36
2018-04-29T11:54:14.600Z,26.39
2018-04-29T11:55:14.592Z,26.46
2018-04-29T11:56:14.587Z,26.43
2018-04-29T11:57:14.569Z,26.52
2018-04-29T11:58:14.562Z,26.64
2018-04-29T11:59:14.538Z,26.70
2018-04-29T12:00:14.534Z,26.70
2018-04-29T12:01:14.522Z,26.70
2018-04-29T12:02:14.502Z,26.63
2018-04-29T12:03:14.488Z,26.70
2018-04-29T12:04:14.473Z,26.63
2018-04-29T12:05:14.462Z,26.61
2018-04-29T12:06:14.449Z,26.49
2018-04-29T12:07:14.434Z,26.64
2018-04-29T12:08:14.428Z,26.53
2018-04-29T12:09:14.414Z,26.60
2018-04-29T12:10:14.397Z,26.58
2018-04-29T12:11:14.392Z,26.49
2018-04-29T12:12:14.369Z,26.52
2018-04-29T12:13:14.366Z,26.45
2018-04-29T12:14:14.348Z,26.56
2018-04-29T12:15:14.332Z,26.53
2018-04-29T12:16:14.317Z,26.58
2018-04-29T12:17:14.304Z,26.51
2018-04-29T12:18:14.291Z,26.56
2018-04-29T12:19:14.284Z,26.61
2018-04-29T12:20:14.303Z,26.53
2018-04-29T12:21:14.254Z,26.49
2018-04-29T12:22:14.236Z,26.52
2018-04-29T12:23:14.222Z,26.60
2018-04-29T12:24:14.254Z,26.61
2018-04-29T12:25:14.193Z,26.49
2018-04-29T12:26:14.188Z,26.52
2018-04-29T12:27:14.184Z,26.49
2018-04-29T12:28:14.179Z,26.39
2018-04-29T12:29:14.144Z,26.53
2018-04-29T12:30:14.125Z,26.51
2018-04-29T12:31:14.114Z,26.49
2018-04-29T12:32:14.099Z,26.45
2018-04-29T12:33:14.086Z,26.46
2018-04-29T12:34:14.073Z,26.56
2018-04-29T12:35:14.062Z,26.53
2018-04-29T12:36:14.043Z,26.53
2018-04-29T12:37:14.030Z,26.46
2018-04-29T12:38:14.016Z,26.56
2018-04-29T12:39:14.004Z,26.57
2018-04-29T12:40:14.010Z,26.60
2018-04-29T12:41:13.977Z,26.56
2018-04-29T12:42:13.962Z,26.52
2018-04-29T12:43:13.954Z,26.64
2018-04-29T12:44:13.933Z,26.48
2018-04-29T12:45:13.922Z,26.58
2018-04-29T12:46:13.903Z,26.52
2018-04-29T12:47:13.896Z,26.52
2018-04-29T12:48:13.876Z,26.49
2018-04-29T12:49:13.865Z,26.52
2018-04-29T12:50:13.847Z,26.42
2018-04-29T12:51:13.838Z,26.36
2018-04-29T12:52:13.835Z,26.46
2018-04-29T12:53:13.819Z,26.36
2018-04-29T12:54:13.818Z,26.41
2018-04-29T12:55:13.819Z,26.45
2018-04-29T12:56:13.820Z,26.34
2018-04-29T12:57:13.821Z,26.39
2018-04-29T12:58:13.796Z,26.30
2018-04-29T12:59:13.748Z,26.27
2018-04-29T13:00:13.849Z,26.20
2018-04-29T13:01:28.341Z,26.20
2018-04-29T13:02:13.676Z,26.11
2018-04-29T13:03:13.665Z,26.10
2018-04-29T13:04:13.654Z,26.05
2018-04-29T13:05:13.634Z,25.90
2018-04-29T13:06:13.624Z,26.00
2018-04-29T13:07:13.603Z,26.00
2018-04-29T13:08:13.590Z,25.88
2018-04-29T13:09:13.579Z,25.86
2018-04-29T13:10:13.560Z,25.90
2018-04-29T13:11:13.547Z,25.85
2018-04-29T13:12:13.535Z,25.77
2018-04-29T13:13:13.517Z,25.78
2018-04-29T13:14:13.522Z,25.77
2018-04-29T13:15:13.487Z,25.82
2018-04-29T13:16:13.469Z,25.68
2018-04-29T13:17:13.458Z,25.67
2018-04-29T13:18:13.442Z,25.64
2018-04-29T13:19:13.427Z,25.63
2018-04-29T13:20:13.418Z,25.59
2018-04-29T13:21:13.439Z,25.61
2018-04-29T13:22:13.411Z,25.56
2018-04-29T13:23:13.415Z,25.53
2018-04-29T13:24:13.355Z,25.49
2018-04-29T13:25:13.338Z,25.55
2018-04-29T13:26:13.323Z,25.48
2018-04-29T13:27:14.162Z,25.49
2018-04-29T13:28:13.352Z,25.51
2018-04-29T13:29:13.280Z,25.34
2018-04-29T13:30:13.263Z,25.40
2018-04-29T13:31:13.250Z,25.45
2018-04-29T13:32:13.234Z,25.40
2018-04-29T13:33:13.221Z,25.40
2018-04-29T13:34:13.205Z,25.31
2018-04-29T13:35:13.188Z,25.33
2018-04-29T13:36:13.183Z,25.28
2018-04-29T13:37:13.160Z,25.26
2018-04-29T13:38:13.146Z,25.28
2018-04-29T13:39:13.132Z,25.28